Decoded Metar for OIIE (ABYEK in IRAN) (IATA:N/A) | Meteo·Mobile Aviation Weather
aviador You're here:

OIIE Decoded Metar

ABYEK in IRAN
Report Time2019-07-16 22:30:00
UTC Time2019-07-16 22:44:37
Flight Rules vfr VFR
Wind130° at 04 kt
W.Decomp.*RWY 11: 3.8 kt HW 1.1 kt RCW
Visibility9999 m
Phenomena:N/A
Clouds:N/A
Expected CloudBase > 13,600 ft AGL from Temp-Dew spread
CeilingNone
Temp35°C (ISA +27)
Dew Point01°C (11% RH)
Heat Index32.4°C
AAT31.6°C
QNH1006 hPa
Density Alt6,614 ft
Elevation3,304 ft
Report Wrong Elevation
Raw Report
OIIE 162230Z 13004KT CAVOK 35/01 Q1006=

Extra information for OIIE:More info

Metar Taf Metar & Taf Last 4 Metars F.Rules Stats Wind Profile Meteogram Temp Stats Airport Information Weather charts Add Link Nearby VenuesMetar ALERT Operation Metar Decoded Social comments